»·PEaware :: APW8482 PHNL-KSBD

APW8482 :: PHNL-KSBD

FLIGHT INFORMATION

Flight Status: Arrived
Operator:
Arrow Cargo
More flights by this operator :: More flights under this callsign
Pilot: Alan Johnston (5709)
Aircraft: LOCKHEED L-1011 TRI-STAR
(L101)
More flights by this aircraft type
Origin: PHNL Honolulu Intl
United States
Destination: KSBD San Bernardino Intl
United States
More flights between these airports :: More routes between these airports
Route: +SXC SLI PDZ V8 PDZ
File this flight plan on PilotEdge
Remarks: / L RVSM GNSS
Altitude:
(Current/Filed)
35,000ft
Speed:
(Current/Filed)
490kts
Departed: 12-May-16 01:37 PM
Arrived: 12-May-16 02:27 PM
Distance/Time
Traveled:
2275nm/0:50
Distance/Time
To Go:
Arrived

Flight Plot

Page will automatically refresh every two minutes.

Flight plan parsing failed; only flown route is shown


Map Options




Map Legend


Flown Route
Filed Route
Departure Airport
Arrival Airport
Navaid (VOR, NDB)
Fix

Horizontal Profiles

Position Reports

Time Latitude Longitude Heading Altitude Ground
Speed
12-May-16 13:35 32.484865 -122.963472 62 35066ft 539kts
12-May-16 13:36 32.518213 -122.795089 78 35135ft 518kts
12-May-16 13:37 32.552374 -122.630341 74 35142ft 511kts
12-May-16 13:38 32.589425 -122.467782 74 35148ft 508kts
12-May-16 13:39 32.626101 -122.305669 74 35155ft 507kts
12-May-16 13:40 32.662567 -122.143546 74 35145ft 507kts
12-May-16 13:41 32.707222 -121.984838 64 35138ft 507kts
12-May-16 13:42 32.763621 -121.830638 66 35135ft 508kts
12-May-16 13:43 32.809796 -121.701891 65 35138ft 508kts
12-May-16 13:44 32.865589 -121.546994 66 35135ft 509kts
12-May-16 13:45 32.921111 -121.391784 66 35125ft 509kts
12-May-16 13:46 32.972780 -121.247143 66 35125ft 508kts
12-May-16 13:47 32.979283 -121.228936 66 35126ft 508kts
12-May-16 13:48 33.035853 -121.069876 67 35124ft 508kts
12-May-16 13:49 33.061118 -120.904117 82 35128ft 509kts
12-May-16 13:50 33.082045 -120.736936 80 35128ft 509kts
12-May-16 13:52 33.126808 -120.403074 80 35125ft 509kts
12-May-16 13:53 33.147776 -120.245081 80 35124ft 509kts
12-May-16 13:54 33.168701 -120.085429 80 35124ft 509kts
12-May-16 13:55 33.190447 -119.918120 80 35120ft 509kts
12-May-16 13:56 33.212075 -119.750064 80 34254ft 513kts
12-May-16 13:57 33.233128 -119.584014 80 31563ft 501kts
12-May-16 13:58 33.253585 -119.423102 81 28870ft 479kts
12-May-16 13:59 33.272681 -119.268372 81 26167ft 461kts
12-May-16 14:00 33.291300 -119.119465 81 24131ft 445kts
12-May-16 14:01 33.309049 -118.973831 82 22631ft 436kts
12-May-16 14:02 33.325536 -118.835451 82 19911ft 400kts
12-May-16 14:03 33.340640 -118.708072 82 17204ft 374kts
12-May-16 14:04 33.355313 -118.587906 82 14499ft 355kts
12-May-16 14:05 33.368623 -118.473406 83 11796ft 339kts
12-May-16 14:06 33.410745 -118.384632 37 10970ft 284kts
12-May-16 14:07 33.476550 -118.329955 38 9719ft 284kts
12-May-16 14:08 33.538784 -118.273985 39 8981ft 278kts
12-May-16 14:09 33.600800 -118.218169 39 8973ft 278kts
12-May-16 14:10 33.662695 -118.162736 39 8967ft 278kts
12-May-16 14:11 33.724859 -118.107100 39 8956ft 278kts
12-May-16 14:12 33.785089 -118.048915 53 8624ft 277kts
12-May-16 14:13 33.807168 -117.963895 76 6996ft 259kts
12-May-16 14:14 33.828304 -117.880000 73 6950ft 262kts
12-May-16 14:15 33.850110 -117.796347 74 6943ft 262kts
12-May-16 14:16 33.868527 -117.722074 74 6934ft 262kts
12-May-16 14:17 33.888255 -117.646575 74 6978ft 228kts
12-May-16 14:18 33.907067 -117.573410 74 6247ft 227kts
12-May-16 14:19 33.934343 -117.507733 30 4902ft 226kts
12-May-16 14:20 33.995351 -117.490615 33 3980ft 224kts
12-May-16 14:21 34.034824 -117.440520 67 3315ft 177kts
12-May-16 14:22 34.052641 -117.377222 73 3151ft 193kts
12-May-16 14:23 34.069092 -117.324614 73 2572ft 144kts
12-May-16 14:24 34.083530 -117.275081 69 1573ft 163kts
12-May-16 14:25 34.095977 -117.232865 70 1173ft 75kts
12-May-16 14:26 34.098592 -117.226626 21 1173ft 0kts
12-May-16 14:27 34.098593 -117.226626 21 1173ft 0kts
12-May-16 14:28 34.099293 -117.226597 279 1173ft 3kts
12-May-16 14:29 34.097396 -117.233290 250 1173ft 30kts
12-May-16 14:30 34.095777 -117.238830 251 1173ft 22kts
12-May-16 14:31 34.096870 -117.241749 358 1173ft 22kts
12-May-16 14:32 34.098367 -117.243883 249 1173ft 0kts
12-May-16 14:33 34.097434 -117.243928 179 1173ft 3kts
12-May-16 14:34 34.097347 -117.243927 179 1173ft 0kts
12-May-16 14:35 34.097347 -117.243927 179 1173ft 0kts
12-May-16 14:36 34.097347 -117.243927 179 1173ft 0kts

Navigation Log

Ident Type
Flight plan parsing failed, navigation log unavailable